Time;durP1;ratioP1;P1;durP2;ratioP2;P2;SDS_P1;SDS_P2;PMS_P1;PMS_P2;Temp;Humidity;BMP_temperature;BMP_pressure;BME280_temperature;BME280_humidity;BME280_pressure;Samples;Min_cycle;Max_cycle;Signal;HPM_P1;HPM_P2
2022/08/20 00:30:16;;;;;;;4.70;3.50;;;17.60;99.90;;;;;;5887689;23;20237;-78
2022/08/20 00:32:51;;;;;;;4.07;3.40;;;17.40;99.90;;;;;;4997598;28;20186;-78
2022/08/20 00:35:20;;;;;;;3.70;3.03;;;17.30;99.90;;;;;;5013875;28;20174;-78
2022/08/20 00:37:45;;;;;;;3.77;3.10;;;17.30;99.90;;;;;;4997141;28;20228;-78
2022/08/20 00:40:15;;;;;;;3.80;3.43;;;17.40;99.90;;;;;;4993612;28;20291;-78
2022/08/20 00:42:47;;;;;;;5.07;3.20;;;17.40;99.90;;;;;;5021888;22;20227;-76
2022/08/20 00:45:14;;;;;;;3.20;2.57;;;17.40;99.90;;;;;;5013471;28;20175;-76
2022/08/20 00:47:41;;;;;;;3.90;3.13;;;17.20;99.90;;;;;;5013237;28;20262;-76
2022/08/20 00:50:09;;;;;;;3.63;3.17;;;17.10;99.90;;;;;;5013091;28;20187;-76
2022/08/20 00:52:35;;;;;;;3.77;3.43;;;17.10;99.90;;;;;;5013134;28;20203;-76
2022/08/20 00:55:03;;;;;;;4.10;3.30;;;17.20;99.90;;;;;;4996812;28;20645;-76
2022/08/20 00:57:35;;;;;;;3.50;3.20;;;17.20;99.90;;;;;;5012971;28;20668;-76
2022/08/20 01:00:07;;;;;;;3.63;3.23;;;17.20;99.90;;;;;;5013033;28;20198;-76
2022/08/20 01:02:33;;;;;;;3.83;3.43;;;17.30;99.90;;;;;;5013051;28;20175;-76
2022/08/20 01:05:00;;;;;;;4.87;3.40;;;17.30;99.90;;;;;;5012967;28;20171;-76
2022/08/20 01:07:33;;;;;;;3.70;2.90;;;17.30;99.90;;;;;;5012862;28;20175;-76
2022/08/20 01:10:05;;;;;;;4.87;3.20;;;17.20;99.90;;;;;;4996857;28;20186;-76
2022/08/20 01:12:31;;;;;;;4.20;3.10;;;17.10;99.90;;;;;;4996389;28;20190;-76
2022/08/20 01:14:59;;;;;;;3.50;3.20;;;17.00;99.90;;;;;;4996570;28;20175;-76
2022/08/20 01:17:28;;;;;;;3.00;2.80;;;17.00;99.90;;;;;;5013927;28;20246;-76
2022/08/20 01:20:10;;;;;;;4.50;3.47;;;17.00;99.90;;;;;;4996348;28;20641;-76
2022/08/20 01:25:49;;;;;;;4.03;3.63;;;17.10;99.90;;;;;;5013684;28;20710;-76
2022/08/20 01:28:18;;;;;;;4.73;3.80;;;17.10;99.90;;;;;;4996175;28;20179;-76
2022/08/20 01:30:44;;;;;;;5.97;3.60;;;17.10;99.90;;;;;;5012431;28;20207;-76
2022/08/20 01:33:10;;;;;;;4.07;3.67;;;17.20;99.90;;;;;;4996211;28;20199;-76
2022/08/20 01:35:41;;;;;;;4.23;3.70;;;17.20;99.90;;;;;;5013543;28;20221;-76
2022/08/20 01:38:07;;;;;;;3.40;3.10;;;17.10;99.90;;;;;;5012254;28;20197;-76
2022/08/20 01:41:05;;;;;;;3.30;3.00;;;16.90;99.90;;;;;;4995826;28;20221;-76
2022/08/20 01:43:31;;;;;;;5.77;3.50;;;16.90;99.90;;;;;;5013217;28;20564;-76
2022/08/20 01:45:56;;;;;;;3.17;2.87;;;16.80;99.90;;;;;;5013375;28;20186;-76
2022/08/20 01:48:22;;;;;;;3.73;3.43;;;16.90;99.90;;;;;;5013339;28;20179;-76
2022/08/20 01:51:13;;;;;;;5.87;5.37;;;17.00;99.90;;;;;;5011973;28;20747;-76
2022/08/20 01:53:45;;;;;;;4.67;3.07;;;17.00;99.90;;;;;;5011917;28;20205;-76
2022/08/20 01:56:15;;;;;;;4.47;3.87;;;17.00;99.90;;;;;;5012178;28;20179;-76
2022/08/20 01:58:49;;;;;;;3.73;3.20;;;17.10;99.90;;;;;;5012087;28;20236;-76
2022/08/20 02:01:25;;;;;;;4.13;3.73;;;17.20;99.90;;;;;;4995620;28;20274;-76
2022/08/20 02:03:52;;;;;;;3.40;3.10;;;17.10;99.90;;;;;;5011750;28;20191;-76
2022/08/20 02:06:23;;;;;;;3.97;3.50;;;17.10;99.90;;;;;;4995900;28;20277;-76
2022/08/20 02:08:50;;;;;;;4.10;3.47;;;17.10;99.90;;;;;;4996329;28;20183;-76
2022/08/20 02:11:15;;;;;;;3.97;3.63;;;17.20;99.90;;;;;;5012724;28;20218;-76
2022/08/20 02:13:41;;;;;;;4.97;4.30;;;17.00;99.90;;;;;;5011562;28;20708;-76
2022/08/20 02:16:07;;;;;;;4.30;3.57;;;17.00;99.90;;;;;;4995262;28;20242;-76
2022/08/20 02:18:33;;;;;;;5.50;5.00;;;17.00;99.90;;;;;;5011584;28;20182;-76
2022/08/20 02:20:59;;;;;;;5.20;4.80;;;16.90;99.90;;;;;;5011083;28;20179;-76
2022/08/20 02:23:25;;;;;;;5.43;4.93;;;16.90;99.90;;;;;;5011450;28;20207;-76
2022/08/20 02:25:51;;;;;;;5.50;5.00;;;16.90;99.90;;;;;;4995177;28;20179;-76
2022/08/20 02:28:18;;;;;;;5.90;5.40;;;16.90;99.90;;;;;;4995078;28;20179;-76
2022/08/20 02:30:48;;;;;;;5.70;5.13;;;16.90;99.90;;;;;;5011158;28;20213;-76
2022/08/20 02:33:17;;;;;;;5.60;5.10;;;16.80;99.90;;;;;;4995326;28;20281;-76
2022/08/20 02:35:46;;;;;;;6.27;5.67;;;16.80;99.90;;;;;;4995261;28;20190;-76
2022/08/20 02:38:14;;;;;;;6.07;5.57;;;16.80;99.90;;;;;;5011184;28;20189;-76
2022/08/20 02:40:43;;;;;;;7.33;6.10;;;16.80;99.90;;;;;;4995130;28;20179;-76
2022/08/20 02:43:08;;;;;;;6.30;5.70;;;16.70;99.90;;;;;;5011202;28;20246;-76
2022/08/20 02:45:34;;;;;;;6.10;5.50;;;16.90;99.90;;;;;;4994836;28;20228;-76
2022/08/20 02:48:00;;;;;;;6.60;5.97;;;16.90;99.90;;;;;;4995191;28;20189;-76
2022/08/20 02:50:26;;;;;;;6.37;5.87;;;16.90;99.90;;;;;;4994533;28;20202;-76
2022/08/20 02:52:52;;;;;;;5.83;5.23;;;16.90;99.90;;;;;;5012269;28;20218;-76
2022/08/20 02:55:20;;;;;;;6.23;5.63;;;16.80;99.90;;;;;;5011164;28;20178;-76
2022/08/20 02:57:45;;;;;;;5.80;5.30;;;16.80;99.90;;;;;;5011161;28;20626;-76
2022/08/20 03:00:17;;;;;;;6.63;6.03;;;16.70;99.90;;;;;;5011277;28;20184;-76
2022/08/20 03:02:44;;;;;;;6.10;5.60;;;16.80;99.90;;;;;;4994968;28;20238;-76
2022/08/20 03:05:10;;;;;;;6.67;6.07;;;16.90;99.90;;;;;;4994930;28;20182;-76
2022/08/20 03:07:49;;;;;;;6.00;5.50;;;17.00;99.90;;;;;;5011094;28;20203;-76
2022/08/20 03:10:15;;;;;;;6.57;5.97;;;16.80;99.90;;;;;;4994255;28;20209;-76
2022/08/20 03:12:41;;;;;;;6.13;5.60;;;16.80;99.90;;;;;;5010941;28;20667;-76
2022/08/20 03:15:09;;;;;;;6.30;5.80;;;16.60;99.90;;;;;;5012172;28;20175;-76
2022/08/20 03:17:35;;;;;;;7.07;6.37;;;16.50;99.90;;;;;;5010898;28;20213;-76
2022/08/20 03:20:03;;;;;;;7.10;6.30;;;16.50;99.90;;;;;;4994390;28;20278;-76
2022/08/20 03:22:29;;;;;;;6.57;5.97;;;16.60;99.90;;;;;;4994421;28;20179;-76
2022/08/20 03:24:55;;;;;;;7.53;6.33;;;16.50;99.90;;;;;;4994531;28;20233;-76
2022/08/20 03:27:21;;;;;;;6.23;5.70;;;16.50;99.90;;;;;;4994640;28;20192;-76
2022/08/20 03:29:46;;;;;;;6.50;5.90;;;16.50;99.90;;;;;;4994302;28;20274;-76
2022/08/20 03:32:12;;;;;;;7.13;6.43;;;16.50;99.90;;;;;;4994426;28;20207;-76
2022/08/20 03:34:37;;;;;;;6.83;6.23;;;16.50;99.90;;;;;;5014362;28;20202;-76
2022/08/20 03:37:03;;;;;;;7.40;6.80;;;16.40;99.90;;;;;;5014393;28;20187;-76
2022/08/20 03:39:29;;;;;;;7.67;6.53;;;16.50;99.90;;;;;;4998161;28;20604;-76
2022/08/20 03:41:54;;;;;;;6.70;5.97;;;16.50;99.90;;;;;;4998196;28;20597;-76
2022/08/20 03:44:20;;;;;;;7.37;6.30;;;16.50;99.90;;;;;;4998081;28;20226;-76
2022/08/20 03:46:46;;;;;;;7.20;6.60;;;16.50;99.90;;;;;;5014493;28;20190;-76
2022/08/20 03:49:11;;;;;;;7.70;7.00;;;16.50;99.90;;;;;;4998124;28;20266;-76
2022/08/20 03:51:37;;;;;;;7.20;6.50;;;16.60;99.90;;;;;;4997822;28;20412;-76
2022/08/20 03:54:03;;;;;;;7.37;6.60;;;16.70;99.90;;;;;;4997797;28;20195;-76
2022/08/20 03:56:29;;;;;;;7.53;6.83;;;16.50;99.90;;;;;;5014291;28;20660;-76
2022/08/20 03:58:54;;;;;;;6.97;6.37;;;16.40;99.90;;;;;;4997977;28;20205;-76
2022/08/20 04:01:20;;;;;;;6.93;6.33;;;16.30;99.90;;;;;;4997556;28;20183;-76
2022/08/20 04:03:46;;;;;;;7.90;7.10;;;16.30;99.90;;;;;;4997759;28;20591;-76
2022/08/20 04:06:11;;;;;;;7.90;7.10;;;16.30;99.90;;;;;;4997802;28;20199;-76
2022/08/20 04:08:39;;;;;;;7.73;6.93;;;16.40;99.90;;;;;;4997498;28;20179;-76
2022/08/20 04:11:04;;;;;;;8.13;7.40;;;16.40;99.90;;;;;;5015181;28;20239;-76
2022/08/20 04:13:30;;;;;;;7.83;7.00;;;16.40;99.90;;;;;;4998030;28;20215;-76
2022/08/20 04:15:57;;;;;;;7.63;6.93;;;16.40;99.90;;;;;;4997587;28;20202;-76
2022/08/20 04:18:24;;;;;;;8.20;7.37;;;16.30;99.90;;;;;;5013875;28;20181;-76
2022/08/20 04:20:51;;;;;;;8.13;7.33;;;16.40;99.90;;;;;;4997300;28;20179;-76
2022/08/20 04:23:17;;;;;;;7.77;7.07;;;16.40;99.90;;;;;;4997290;28;20199;-76
2022/08/20 04:25:44;;;;;;;8.10;7.40;;;16.50;99.90;;;;;;5013924;28;20190;-76
2022/08/20 04:28:25;;;;;;;8.53;7.70;;;16.40;99.90;;;;;;5014846;28;20183;-76
2022/08/20 04:30:52;;;;;;;8.73;7.07;;;16.50;99.90;;;;;;4998488;28;20235;-76
2022/08/20 04:33:23;;;;;;;6.30;5.73;;;16.50;99.90;;;;;;5013643;28;20195;-76
2022/08/20 04:35:48;;;;;;;7.80;7.00;;;16.30;99.90;;;;;;4997211;28;20179;-76
2022/08/20 04:38:17;;;;;;;7.77;7.00;;;16.30;99.90;;;;;;5013275;28;20596;-76
2022/08/20 04:40:52;;;;;;;9.57;8.53;;;16.30;99.90;;;;;;4996958;28;20569;-76
2022/08/20 04:43:25;;;;;;;9.77;8.77;;;16.20;99.90;;;;;;5014121;28;20631;-76
2022/08/20 04:45:52;;;;;;;9.60;8.70;;;16.30;99.90;;;;;;5013382;28;20189;-76
2022/08/20 04:48:19;;;;;;;10.20;9.27;;;16.40;99.90;;;;;;5014482;28;20175;-76
2022/08/20 04:50:47;;;;;;;9.73;8.70;;;16.40;99.90;;;;;;5012846;28;20230;-76
2022/08/20 04:53:16;;;;;;;9.23;8.43;;;16.50;99.90;;;;;;5013257;28;20191;-76
2022/08/20 04:55:44;;;;;;;10.67;9.67;;;16.60;99.90;;;;;;5013303;28;20168;-76
2022/08/20 04:58:20;;;;;;;9.63;8.73;;;16.70;99.90;;;;;;5013052;28;20166;-76
2022/08/20 05:00:48;;;;;;;9.80;8.90;;;16.80;99.90;;;;;;5014000;28;20251;-76
2022/08/20 05:03:15;;;;;;;10.23;9.23;;;16.80;99.90;;;;;;4997059;28;20202;-76
2022/08/20 05:05:40;;;;;;;10.03;9.13;;;17.00;99.90;;;;;;5012995;28;20190;-76
2022/08/20 05:08:06;;;;;;;8.77;7.87;;;17.00;99.90;;;;;;5016113;28;20266;-75
2022/08/20 05:10:33;;;;;;;8.07;7.37;;;17.00;99.90;;;;;;5001455;28;20213;-75
2022/08/20 05:12:59;;;;;;;7.13;6.53;;;17.00;99.90;;;;;;5017080;28;20201;-75
2022/08/20 05:15:25;;;;;;;7.57;6.90;;;17.00;99.90;;;;;;5018037;28;20199;-75
2022/08/20 05:17:56;;;;;;;8.00;7.30;;;17.00;99.90;;;;;;5017650;28;20175;-77
2022/08/20 05:20:22;;;;;;;8.10;7.40;;;16.90;99.90;;;;;;5018058;28;20199;-75
2022/08/20 05:22:47;;;;;;;9.93;7.60;;;17.00;99.90;;;;;;5016025;28;20187;-75
2022/08/20 05:25:13;;;;;;;7.53;6.83;;;17.00;99.90;;;;;;4999925;28;20186;-75
2022/08/20 05:27:40;;;;;;;7.43;6.73;;;16.90;99.90;;;;;;4999701;28;20270;-75
2022/08/20 05:30:09;;;;;;;9.40;7.17;;;16.90;99.90;;;;;;4999621;28;20194;-75
2022/08/20 05:32:35;;;;;;;8.37;7.57;;;16.90;99.90;;;;;;5015770;28;20201;-75
2022/08/20 05:35:02;;;;;;;8.30;7.60;;;16.90;99.90;;;;;;5015892;28;20182;-75
2022/08/20 05:37:29;;;;;;;7.97;7.27;;;17.00;99.90;;;;;;5015682;28;20199;-75
2022/08/20 05:39:54;;;;;;;8.07;7.27;;;17.00;99.90;;;;;;4999526;28;20175;-75
2022/08/20 05:42:20;;;;;;;8.30;7.50;;;17.10;99.90;;;;;;5015766;28;20179;-75
2022/08/20 05:44:46;;;;;;;8.53;7.63;;;17.10;99.90;;;;;;5015640;28;20720;-75
2022/08/20 05:47:12;;;;;;;8.10;7.40;;;17.20;99.90;;;;;;4998952;28;20183;-75
2022/08/20 05:49:38;;;;;;;8.97;8.03;;;17.10;99.90;;;;;;5015710;28;20262;-75
2022/08/20 05:52:04;;;;;;;8.63;7.90;;;17.10;99.90;;;;;;4998829;28;20587;-75
2022/08/20 05:54:31;;;;;;;8.80;8.00;;;17.10;99.90;;;;;;4998933;28;20666;-75
2022/08/20 05:56:56;;;;;;;9.13;8.23;;;17.10;99.90;;;;;;5014972;28;20179;-75
2022/08/20 05:59:24;;;;;;;8.63;7.77;;;17.30;99.90;;;;;;4999329;28;20197;-75
2022/08/20 06:01:50;;;;;;;8.60;7.77;;;17.30;99.90;;;;;;4999183;28;20183;-75
2022/08/20 06:04:26;;;;;;;8.53;7.83;;;17.30;99.90;;;;;;5015083;28;20586;-75
2022/08/20 06:06:55;;;;;;;8.83;7.97;;;17.40;99.90;;;;;;4999927;28;20546;-75
2022/08/20 06:09:23;;;;;;;9.07;8.23;;;17.40;99.90;;;;;;5015413;28;20179;-75
2022/08/20 06:11:48;;;;;;;9.00;8.20;;;17.40;99.90;;;;;;5015116;28;20199;-75
2022/08/20 06:14:15;;;;;;;9.80;8.80;;;17.40;99.90;;;;;;4998901;28;20712;-75
2022/08/20 06:16:41;;;;;;;9.27;8.30;;;17.40;99.90;;;;;;4999146;28;20179;-75
2022/08/20 06:19:07;;;;;;;9.47;8.57;;;17.50;99.90;;;;;;5015113;28;20185;-75
2022/08/20 06:21:32;;;;;;;10.07;9.07;;;17.50;99.90;;;;;;4998155;28;20187;-75
2022/08/20 06:23:58;;;;;;;9.97;8.97;;;17.60;99.90;;;;;;4998972;28;20222;-75
2022/08/20 06:26:24;;;;;;;9.53;8.73;;;17.70;99.90;;;;;;5014998;28;20224;-75
2022/08/20 06:28:49;;;;;;;9.90;8.93;;;17.80;99.90;;;;;;4998789;28;20567;-75
2022/08/20 06:31:15;;;;;;;9.83;8.90;;;17.80;99.90;;;;;;5015192;28;20260;-75
2022/08/20 06:33:41;;;;;;;8.90;8.10;;;17.80;99.90;;;;;;5014564;28;20208;-75
2022/08/20 06:36:07;;;;;;;9.10;8.20;;;17.80;99.90;;;;;;5014950;28;20206;-75
2022/08/20 06:38:33;;;;;;;10.53;9.57;;;17.80;99.90;;;;;;4998631;28;20266;-75
2022/08/20 06:40:58;;;;;;;10.20;9.30;;;17.80;99.90;;;;;;5015445;28;20199;-75
2022/08/20 06:43:24;;;;;;;11.07;10.07;;;17.90;99.90;;;;;;5044400;22;20218;-76
2022/08/20 06:45:50;;;;;;;12.27;11.17;;;18.00;99.90;;;;;;5032174;28;20167;-75
2022/08/20 06:48:16;;;;;;;12.03;10.93;;;18.10;99.90;;;;;;5014674;28;20201;-76
2022/08/20 06:50:46;;;;;;;11.37;10.27;;;18.10;99.90;;;;;;5031938;28;20199;-76
2022/08/20 06:53:15;;;;;;;12.13;11.03;;;18.20;99.90;;;;;;5011125;28;20206;-76
2022/08/20 06:55:45;;;;;;;13.50;12.30;;;18.20;99.90;;;;;;5027652;28;20171;-76
2022/08/20 06:58:12;;;;;;;13.17;11.97;;;18.10;99.90;;;;;;5027851;28;20175;-76
2022/08/20 07:00:41;;;;;;;12.23;11.03;;;18.20;99.90;;;;;;5010973;28;20209;-76
2022/08/20 07:03:06;;;;;;;12.77;11.57;;;18.40;99.90;;;;;;5011332;28;20699;-76
2022/08/20 07:05:36;;;;;;;13.80;12.40;;;18.40;99.90;;;;;;5011181;28;20221;-76
2022/08/20 07:08:02;;;;;;;13.30;11.90;;;18.60;99.90;;;;;;5013976;28;20183;-76
2022/08/20 07:10:29;;;;;;;12.03;10.83;;;18.60;99.90;;;;;;5014828;28;20205;-76
2022/08/20 07:12:54;;;;;;;13.00;11.70;;;18.70;99.90;;;;;;4998724;28;20174;-75
2022/08/20 07:15:22;;;;;;;12.57;11.20;;;18.70;99.90;;;;;;5031569;28;20166;-75
2022/08/20 07:17:53;;;;;;;12.87;11.10;;;18.70;99.90;;;;;;5015175;28;20175;-75
2022/08/20 07:20:19;;;;;;;12.17;10.87;;;18.80;99.90;;;;;;5031156;28;20528;-75
2022/08/20 07:22:45;;;;;;;12.40;11.07;;;18.80;99.90;;;;;;5031347;28;20171;-76
2022/08/20 07:25:14;;;;;;;12.23;10.93;;;18.90;99.90;;;;;;5031568;28;20198;-76
2022/08/20 07:27:41;;;;;;;12.43;11.20;;;18.90;99.90;;;;;;5031359;28;20585;-76
2022/08/20 07:32:56;;;;;;;13.63;10.87;;;18.90;99.90;;;;;;5015991;28;20689;-75
2022/08/20 07:35:21;;;;;;;18.63;11.60;;;19.00;99.90;;;;;;5014676;28;20183;-76
2022/08/20 07:37:50;;;;;;;13.57;11.30;;;19.00;99.90;;;;;;5014390;28;20268;-76
2022/08/20 07:40:34;;;;;;;13.40;11.40;;;19.00;99.90;;;;;;5014844;28;20274;-76
2022/08/20 07:43:01;;;;;;;13.37;11.93;;;19.00;99.90;;;;;;5015624;28;20198;-76
2022/08/20 07:45:28;;;;;;;12.97;11.03;;;19.00;99.90;;;;;;5030842;28;20201;-76
2022/08/20 07:48:04;;;;;;;12.30;11.00;;;19.00;99.90;;;;;;5031087;28;20548;-76
2022/08/20 07:50:31;;;;;;;12.87;10.90;;;19.10;99.90;;;;;;5015740;28;20174;-76
2022/08/20 07:52:59;;;;;;;13.50;11.33;;;19.20;99.90;;;;;;4998119;28;20203;-75
2022/08/20 07:55:25;;;;;;;12.83;11.53;;;19.20;99.90;;;;;;5015534;28;20178;-75
2022/08/20 07:57:51;;;;;;;13.37;11.43;;;19.20;99.90;;;;;;5030463;28;20221;-76
2022/08/20 08:00:19;;;;;;;14.77;11.27;;;19.20;99.90;;;;;;5014240;28;20203;-75
2022/08/20 08:02:45;;;;;;;12.50;11.20;;;19.30;99.90;;;;;;5030725;28;20262;-76
2022/08/20 08:05:11;;;;;;;12.83;11.53;;;19.30;99.90;;;;;;4997853;28;20263;-76
2022/08/20 08:07:38;;;;;;;12.73;11.40;;;19.30;99.90;;;;;;5014225;28;20538;-76
2022/08/20 08:10:07;;;;;;;11.77;10.57;;;19.30;99.90;;;;;;4997669;28;20198;-76
2022/08/20 08:12:40;;;;;;;13.60;12.20;;;19.30;99.90;;;;;;4997800;28;20693;-76
2022/08/20 08:15:14;;;;;;;13.43;11.87;;;19.20;99.90;;;;;;5014040;28;20723;-76
2022/08/20 08:17:40;;;;;;;12.50;11.20;;;19.20;99.90;;;;;;5014006;28;20175;-76
2022/08/20 08:20:07;;;;;;;13.43;12.03;;;19.10;99.90;;;;;;5013086;28;20183;-76
2022/08/20 08:22:33;;;;;;;15.23;13.10;;;19.00;99.90;;;;;;5030333;28;20575;-76
2022/08/20 08:25:01;;;;;;;13.93;12.43;;;19.00;99.90;;;;;;4997272;28;20203;-76
2022/08/20 08:27:34;;;;;;;14.77;11.77;;;18.80;99.90;;;;;;5030497;28;20654;-76
2022/08/20 08:30:01;;;;;;;13.63;12.17;;;18.80;99.90;;;;;;5013954;28;20230;-76
2022/08/20 08:32:27;;;;;;;14.63;12.50;;;18.80;99.90;;;;;;5013733;28;20301;-77
2022/08/20 08:34:53;;;;;;;13.53;11.90;;;18.70;99.90;;;;;;5013638;28;20199;-76
2022/08/20 08:37:19;;;;;;;13.47;11.73;;;18.60;99.90;;;;;;5013328;28;20175;-75
2022/08/20 08:39:44;;;;;;;14.07;12.13;;;18.60;99.90;;;;;;5013407;28;20164;-76
2022/08/20 08:42:39;;;;;;;14.13;12.63;;;18.70;99.90;;;;;;4997116;28;20186;-76
2022/08/20 08:45:07;;;;;;;15.80;13.23;;;18.60;99.90;;;;;;5029870;28;20241;-76
2022/08/20 08:47:37;;;;;;;14.60;12.40;;;18.60;99.90;;;;;;5013410;28;20183;-76
2022/08/20 08:50:05;;;;;;;14.93;13.00;;;18.60;99.90;;;;;;5029501;28;20206;-76
2022/08/20 08:52:34;;;;;;;15.37;12.80;;;18.60;99.90;;;;;;4997016;28;20211;-76
2022/08/20 08:55:04;;;;;;;15.87;12.30;;;18.70;99.90;;;;;;5013409;28;20233;-76
2022/08/20 08:57:31;;;;;;;13.37;12.00;;;18.80;99.90;;;;;;5013266;28;20175;-76
2022/08/20 09:00:08;;;;;;;15.03;13.37;;;18.90;99.90;;;;;;5029351;28;20258;-76
2022/08/20 09:02:37;;;;;;;14.30;12.63;;;19.00;99.90;;;;;;5013287;28;20169;-76
2022/08/20 09:05:13;;;;;;;14.63;12.20;;;19.10;99.90;;;;;;4997591;28;20186;-76
2022/08/20 09:07:44;;;;;;;17.60;12.23;;;19.20;99.90;;;;;;5029539;28;20654;-76
2022/08/20 09:10:10;;;;;;;15.40;12.17;;;19.40;99.90;;;;;;5029217;28;20175;-75
2022/08/20 09:12:35;;;;;;;12.83;11.37;;;19.50;99.90;;;;;;5029336;28;20253;-76
2022/08/20 09:15:01;;;;;;;12.73;11.38;;;19.60;99.90;;;;;;5012697;28;20195;-76
2022/08/20 09:17:27;;;;;;;15.50;13.03;;;19.70;99.90;;;;;;5012603;28;20179;-76
2022/08/20 09:19:52;;;;;;;13.88;11.88;;;19.80;99.90;;;;;;5012443;28;20238;-76
2022/08/20 09:22:21;;;;;;;15.80;12.27;;;19.90;99.90;;;;;;5029259;28;20270;-76
2022/08/20 09:24:47;;;;;;;13.63;11.40;;;20.20;99.90;;;;;;5012797;28;20199;-76
2022/08/20 09:27:13;;;;;;;13.43;12.02;;;20.30;99.90;;;;;;5013094;28;20232;-76
2022/08/20 09:29:39;;;;;;;15.00;11.90;;;20.50;99.90;;;;;;5012370;28;20179;-76
2022/08/20 09:32:15;;;;;;;13.73;11.50;;;20.70;99.90;;;;;;4979761;28;20230;-76
2022/08/20 09:34:43;;;;;;;12.55;10.85;;;20.90;99.90;;;;;;5012897;28;20244;-76
2022/08/20 09:37:09;;;;;;;12.43;9.93;;;21.00;99.90;;;;;;5012519;28;20544;-76
2022/08/20 09:39:35;;;;;;;11.48;10.07;;;21.10;99.90;;;;;;5029007;28;20171;-76
2022/08/20 09:42:09;;;;;;;11.30;9.88;;;21.10;99.90;;;;;;5012123;28;20175;-76
2022/08/20 09:44:35;;;;;;;10.52;9.43;;;21.30;99.90;;;;;;4995865;28;20245;-76
2022/08/20 09:47:00;;;;;;;10.70;9.65;;;21.60;99.90;;;;;;5012135;28;20211;-76
2022/08/20 09:49:26;;;;;;;12.52;10.50;;;22.00;99.90;;;;;;5012900;28;20699;-76
2022/08/20 09:51:52;;;;;;;9.77;8.70;;;22.00;99.90;;;;;;4995627;28;20217;-76
2022/08/20 09:54:18;;;;;;;10.60;9.50;;;21.90;99.90;;;;;;5011938;28;20278;-76
2022/08/20 09:56:44;;;;;;;10.70;9.60;;;21.70;99.90;;;;;;5028580;28;20190;-76
2022/08/20 09:59:11;;;;;;;11.57;10.23;;;21.50;99.90;;;;;;5012057;28;20175;-76
2022/08/20 10:01:37;;;;;;;11.13;10.02;;;21.60;99.90;;;;;;4995745;28;20190;-76
2022/08/20 10:04:03;;;;;;;10.90;9.80;;;22.00;99.90;;;;;;4995695;28;20199;-76
2022/08/20 10:06:28;;;;;;;10.43;9.07;;;22.50;99.90;;;;;;4995662;28;20649;-76
2022/08/20 10:08:54;;;;;;;10.77;9.32;;;22.90;99.90;;;;;;5011897;28;20282;-76
2022/08/20 10:11:19;;;;;;;12.48;9.63;;;22.90;99.90;;;;;;5028163;28;20237;-76
2022/08/20 10:13:45;;;;;;;9.25;8.23;;;23.10;99.90;;;;;;5011765;28;20198;-76
2022/08/20 10:16:11;;;;;;;9.52;8.52;;;23.50;99.90;;;;;;4995328;28;20530;-76
2022/08/20 10:18:36;;;;;;;9.50;8.50;;;23.50;99.90;;;;;;5028196;28;20167;-76
2022/08/20 10:21:02;;;;;;;8.52;7.63;;;23.50;99.90;;;;;;4995116;28;20191;-76
2022/08/20 10:23:28;;;;;;;9.10;8.20;;;23.20;99.90;;;;;;5011583;28;20274;-76
2022/08/20 10:25:53;;;;;;;8.82;7.93;;;22.80;99.90;;;;;;4995280;28;20237;-76
2022/08/20 10:28:19;;;;;;;8.82;7.93;;;22.60;99.90;;;;;;5011475;28;20659;-76
2022/08/20 10:30:45;;;;;;;8.75;7.70;;;22.90;99.90;;;;;;5011420;28;20210;-76
2022/08/20 10:33:11;;;;;;;8.63;7.82;;;23.50;99.90;;;;;;4995209;28;20550;-76
2022/08/20 10:35:36;;;;;;;8.73;7.70;;;23.70;99.90;;;;;;4995141;28;20225;-76
2022/08/20 10:38:02;;;;;;;9.48;8.10;;;24.20;99.90;;;;;;5011269;28;20183;-76
2022/08/20 10:40:28;;;;;;;8.35;7.32;;;24.10;99.90;;;;;;4995264;28;20171;-76
2022/08/20 10:42:53;;;;;;;7.95;7.15;;;24.10;99.90;;;;;;4994828;28;20182;-76
2022/08/20 10:45:19;;;;;;;8.27;7.47;;;24.40;99.90;;;;;;4995341;28;20178;-76
2022/08/20 10:47:44;;;;;;;8.05;7.25;;;23.90;99.90;;;;;;5011593;28;20180;-76
2022/08/20 10:50:15;;;;;;;7.47;6.57;;;24.00;99.90;;;;;;5027466;28;20171;-76
2022/08/20 10:52:42;;;;;;;7.57;6.32;;;24.30;99.90;;;;;;5027628;28;20333;-76
2022/08/20 10:55:08;;;;;;;7.97;6.53;;;24.70;99.90;;;;;;5012371;28;20202;-76
2022/08/20 10:57:34;;;;;;;7.68;6.97;;;25.10;99.90;;;;;;5011175;28;20641;-76
2022/08/20 11:00:00;;;;;;;7.10;6.32;;;25.20;99.90;;;;;;4994688;28;20206;-76
2022/08/20 11:02:27;;;;;;;7.30;6.60;;;25.60;99.90;;;;;;5012377;28;20258;-76
2022/08/20 11:04:54;;;;;;;6.80;6.20;;;25.70;99.90;;;;;;5027565;28;20224;-76
2022/08/20 11:07:25;;;;;;;7.07;6.05;;;25.80;99.90;;;;;;5027442;28;20218;-76
2022/08/20 11:09:50;;;;;;;6.28;5.63;;;26.10;99.90;;;;;;5027563;28;20633;-76
2022/08/20 11:12:18;;;;;;;5.85;5.25;;;26.00;99.90;;;;;;5010897;28;20213;-76
2022/08/20 11:14:44;;;;;;;5.60;5.10;;;26.20;99.90;;;;;;5027391;28;20231;-76
2022/08/20 11:17:10;;;;;;;5.78;5.20;;;26.40;99.90;;;;;;5027481;28;20217;-76
2022/08/20 11:19:43;;;;;;;6.68;5.13;;;26.80;99.90;;;;;;5027399;28;20183;-76
2022/08/20 11:22:10;;;;;;;7.82;6.05;;;26.80;99.90;;;;;;5027358;28;20186;-76
2022/08/20 11:24:37;;;;;;;4.85;4.35;;;26.40;99.90;;;;;;5027430;28;20202;-76
2022/08/20 11:27:06;;;;;;;4.82;4.40;;;26.70;99.90;;;;;;5012024;28;20229;-75
2022/08/20 11:29:33;;;;;;;4.82;4.40;;;26.80;99.90;;;;;;5010933;28;20224;-76
2022/08/20 11:31:58;;;;;;;5.20;4.70;;;27.10;99.90;;;;;;4994518;28;20195;-76
2022/08/20 11:34:24;;;;;;;5.10;4.60;;;26.80;99.90;;;;;;4994488;28;20203;-76
2022/08/20 11:36:50;;;;;;;5.10;4.65;;;26.10;99.90;;;;;;5010897;28;20183;-76
2022/08/20 11:39:16;;;;;;;5.35;4.85;;;25.60;99.90;;;;;;5011845;28;20178;-76
2022/08/20 11:41:42;;;;;;;5.25;4.75;;;25.30;99.90;;;;;;4994579;28;20261;-76
2022/08/20 11:44:07;;;;;;;5.63;4.10;;;25.10;99.90;;;;;;5027089;28;20225;-76
2022/08/20 11:46:33;;;;;;;4.35;3.95;;;25.00;99.90;;;;;;5010841;28;20190;-76
2022/08/20 11:48:59;;;;;;;3.78;3.47;;;24.90;99.90;;;;;;5010768;28;20185;-76
2022/08/20 11:51:24;;;;;;;5.05;3.80;;;25.00;99.90;;;;;;5026824;28;20203;-76
2022/08/20 11:53:50;;;;;;;4.28;3.88;;;24.90;99.90;;;;;;4995098;28;20604;-76
2022/08/20 11:56:17;;;;;;;4.53;3.83;;;24.80;99.90;;;;;;5030674;28;20225;-76
2022/08/20 11:58:43;;;;;;;4.63;4.22;;;24.70;99.90;;;;;;5014456;28;20183;-76
2022/08/20 12:01:08;;;;;;;4.40;4.00;;;24.50;99.90;;;;;;5030505;28;20171;-76
2022/08/20 12:03:35;;;;;;;5.30;4.10;;;24.50;99.90;;;;;;5013958;28;20709;-76
2022/08/20 12:06:01;;;;;;;4.20;3.83;;;24.40;99.90;;;;;;5030631;28;20178;-76
2022/08/20 12:08:28;;;;;;;4.75;4.35;;;24.30;99.90;;;;;;4997901;28;20262;-76
2022/08/20 12:10:58;;;;;;;4.70;4.03;;;24.10;99.90;;;;;;5014039;28;20191;-76
2022/08/20 12:13:25;;;;;;;5.20;4.70;;;24.00;99.90;;;;;;5030385;28;20662;-76
2022/08/20 12:15:53;;;;;;;4.82;4.30;;;24.10;99.90;;;;;;5030401;28;20167;-76
2022/08/20 12:18:19;;;;;;;5.75;4.63;;;24.10;99.90;;;;;;5013801;28;20229;-76
2022/08/20 12:20:45;;;;;;;4.80;4.40;;;24.10;99.90;;;;;;5013743;28;20175;-76
2022/08/20 12:23:11;;;;;;;4.93;4.43;;;24.10;99.90;;;;;;5030169;28;20194;-76
2022/08/20 12:25:36;;;;;;;4.68;4.28;;;24.00;99.90;;;;;;5013701;28;20179;-76
2022/08/20 12:28:03;;;;;;;4.78;4.38;;;23.90;99.90;;;;;;5013829;28;20201;-76
2022/08/20 12:30:30;;;;;;;4.57;4.15;;;24.00;99.90;;;;;;5014571;28;20179;-76
2022/08/20 12:32:55;;;;;;;4.90;4.47;;;24.00;99.90;;;;;;5029933;28;20175;-76
2022/08/20 12:35:21;;;;;;;5.30;4.32;;;24.10;99.90;;;;;;4997260;28;20191;-76
2022/08/20 12:37:48;;;;;;;4.70;4.25;;;24.20;99.90;;;;;;5013589;28;20175;-76
2022/08/20 12:40:25;;;;;;;4.88;4.47;;;24.70;99.90;;;;;;4997037;28;20205;-76
2022/08/20 12:42:51;;;;;;;4.40;4.00;;;25.50;99.90;;;;;;5013884;28;20190;-75
2022/08/20 12:45:17;;;;;;;5.07;4.57;;;26.20;99.90;;;;;;5008279;23;20214;-74
2022/08/20 12:47:44;;;;;;;5.22;4.47;;;26.30;99.90;;;;;;5016964;28;20175;-74
2022/08/20 12:50:13;;;;;;;4.47;4.07;;;26.00;99.90;;;;;;5034426;28;20190;-74
2022/08/20 12:52:39;;;;;;;4.60;4.20;;;25.70;99.90;;;;;;5033184;28;20253;-74
2022/08/20 12:55:08;;;;;;;4.25;3.85;;;25.30;99.90;;;;;;5033076;28;20205;-74
2022/08/20 12:57:46;;;;;;;4.55;4.15;;;24.90;99.90;;;;;;5033091;28;20270;-74
2022/08/20 13:00:28;;;;;;;4.30;4.00;;;24.60;99.90;;;;;;5033161;28;20257;-74
2022/08/20 13:02:56;;;;;;;4.53;4.13;;;24.30;99.90;;;;;;5016958;28;20617;-74
2022/08/20 13:05:23;;;;;;;5.35;3.72;;;24.10;99.90;;;;;;5034083;28;20660;-74
2022/08/20 13:07:49;;;;;;;3.25;2.92;;;23.80;99.90;;;;;;5016883;28;20206;-74
2022/08/20 13:10:32;;;;;;;2.85;2.55;;;23.50;99.90;;;;;;5032902;28;20589;-75
2022/08/20 13:13:01;;;;;;;3.75;3.28;;;23.30;99.90;;;;;;5032943;28;20220;-74
2022/08/20 13:15:27;;;;;;;3.33;2.60;;;23.10;99.90;;;;;;5016720;28;20194;-75
2022/08/20 13:17:55;;;;;;;2.60;2.40;;;22.90;99.90;;;;;;5032970;28;20170;-75